Jenny — WDB7954 — position and weather

sailwx.info

Track history (hours):
 
Tides and Currents Weather Stations Pressure Air Temp Water Temp Dewpoint Dewpoint Depression Visibility Wind Speed Wind Dir Waves Ship Positions

Jenny

Owner: Wilmington Tug, Inc., New Castle, DE. More information available from US FCC via Universal Licensing System and Coast Guard Vessel Documentation Center.

Last reported at 2017-Sep-23 20:10 UTC. Time now 2017-Sep-24 10:23 UTC.
Position N 39°43' W 075°31'.

Length 12 m; draft 1.1 m.

Type: Passenger vessel. MMSI: 366950410.

Date/timePositionNaut miles runAvg speedWind from/ knotsBaromVisibWave heightAir tempDewpointWater temp
2017-Sep-23 20:10N 39°43' W 075°31'319.5
2017-Sep-23 20:00N 39°40' W 075°32'3 0.1
2017-Sep-21 23:06N 39°43' W 075°31'0 3.4
2017-Sep-21 23:00N 39°43' W 075°31'917.5
2017-Sep-21 22:31N 39°49' W 075°23'2 4.8
2017-Sep-21 22:01N 39°48' W 075°25'611.1
2017-Sep-21 21:31N 39°44' W 075°30'1 0.0
2017-Sep-19 20:38N 39°43' W 075°31'1 7.1
2017-Sep-19 20:30N 39°42' W 075°31'815.4
2017-Sep-19 20:00N 39°35' W 075°33'3 5.2
2017-Sep-19 19:30N 39°34' W 075°30'3 6.6
2017-Sep-19 19:00N 39°36' W 075°34'815.5
2017-Sep-19 18:30N 39°43' W 075°31'0 0.0
2017-Sep-19 13:06N 39°43' W 075°31'0 2.7
2017-Sep-19 13:00N 39°43' W 075°31'0 0.0
2017-Sep-18 10:34N 39°43' W 075°31'0 1.0
2017-Sep-18 10:30N 39°43' W 075°31'715.0
2017-Sep-18 10:00N 39°36' W 075°34'3 6.9
2017-Sep-18 09:31N 39°34' W 075°30'0 0.9
2017-Sep-18 09:00N 39°34' W 075°30'3 5.7
2017-Sep-18 08:30N 39°35' W 075°33'917.1
2017-Sep-18 08:00N 39°43' W 075°31'0 0.0
2017-Sep-17 12:44N 39°43' W 075°31'0 1.8
2017-Sep-17 12:31N 39°43' W 075°30'0 0.0
2017-Sep-17 02:48N 39°43' W 075°31'412.4
2017-Sep-17 02:31N 39°40' W 075°33'510.5
2017-Sep-17 02:01N 39°34' W 075°34'1 2.0
2017-Sep-17 01:31N 39°34' W 075°33'815.0
2017-Sep-17 01:00N 39°41' W 075°31'2 0.1
2017-Sep-15 21:36N 39°43' W 075°31'0 2.4
2017-Sep-15 21:31N 39°43' W 075°31'0 0.1
2017-Sep-15 19:28N 39°43' W 075°31'0 0.0
2017-Sep-15 16:26N 39°43' W 075°31'  
Track history (hours):
 
Tides and Currents Weather Stations Pressure Air Temp Water Temp Dewpoint Dewpoint Depression Visibility Wind Speed Wind Dir Waves Ship Positions

Jenny

Owner: Wilmington Tug, Inc., New Castle, DE. More information available from US FCC via Universal Licensing System and Coast Guard Vessel Documentation Center.

Last reported at 2017-Sep-23 20:10 UTC. Time now 2017-Sep-24 10:23 UTC.
Position N 39°43' W 075°31'.

Length 12 m; draft 1.1 m.

Type: Passenger vessel. MMSI: 366950410.

Date/timePositionNaut miles runAvg speedWind from/ knotsBaromVisibWave heightAir tempDewpointWater temp
2017-Sep-23 20:10N 39°43' W 075°31'319.5
2017-Sep-23 20:00N 39°40' W 075°32'3 0.1
2017-Sep-21 23:06N 39°43' W 075°31'0 3.4
2017-Sep-21 23:00N 39°43' W 075°31'917.5
2017-Sep-21 22:31N 39°49' W 075°23'2 4.8
2017-Sep-21 22:01N 39°48' W 075°25'611.1
2017-Sep-21 21:31N 39°44' W 075°30'1 0.0
2017-Sep-19 20:38N 39°43' W 075°31'1 7.1
2017-Sep-19 20:30N 39°42' W 075°31'815.4
2017-Sep-19 20:00N 39°35' W 075°33'3 5.2
2017-Sep-19 19:30N 39°34' W 075°30'3 6.6
2017-Sep-19 19:00N 39°36' W 075°34'815.5
2017-Sep-19 18:30N 39°43' W 075°31'0 0.0
2017-Sep-19 13:06N 39°43' W 075°31'0 2.7
2017-Sep-19 13:00N 39°43' W 075°31'0 0.0
2017-Sep-18 10:34N 39°43' W 075°31'0 1.0
2017-Sep-18 10:30N 39°43' W 075°31'715.0
2017-Sep-18 10:00N 39°36' W 075°34'3 6.9
2017-Sep-18 09:31N 39°34' W 075°30'0 0.9
2017-Sep-18 09:00N 39°34' W 075°30'3 5.7
2017-Sep-18 08:30N 39°35' W 075°33'917.1
2017-Sep-18 08:00N 39°43' W 075°31'0 0.0
2017-Sep-17 12:44N 39°43' W 075°31'0 1.8
2017-Sep-17 12:31N 39°43' W 075°30'0 0.0
2017-Sep-17 02:48N 39°43' W 075°31'412.4
2017-Sep-17 02:31N 39°40' W 075°33'510.5
2017-Sep-17 02:01N 39°34' W 075°34'1 2.0
2017-Sep-17 01:31N 39°34' W 075°33'815.0
2017-Sep-17 01:00N 39°41' W 075°31'2 0.1
2017-Sep-15 21:36N 39°43' W 075°31'0 2.4
2017-Sep-15 21:31N 39°43' W 075°31'0 0.1
2017-Sep-15 19:28N 39°43' W 075°31'0 0.0
2017-Sep-15 16:26N 39°43' W 075°31'  

Dump ship's entire track history